sensor_id;sensor_type;location;lat;lon;timestamp;P1;durP1;ratioP1;P2;durP2;ratioP2
769;SDS011;368;48.698;9.116;2022-08-25T00:02:01;4.17;;;3.77;;
769;SDS011;368;48.698;9.116;2022-08-25T00:04:32;4.80;;;4.13;;
769;SDS011;368;48.698;9.116;2022-08-25T00:07:00;5.20;;;4.80;;
769;SDS011;368;48.698;9.116;2022-08-25T00:09:27;4.40;;;4.10;;
769;SDS011;368;48.698;9.116;2022-08-25T00:11:55;4.27;;;3.97;;
769;SDS011;368;48.698;9.116;2022-08-25T00:14:23;4.80;;;4.40;;
769;SDS011;368;48.698;9.116;2022-08-25T00:16:52;4.43;;;4.10;;
769;SDS011;368;48.698;9.116;2022-08-25T00:19:21;4.57;;;4.17;;
769;SDS011;368;48.698;9.116;2022-08-25T00:21:50;5.30;;;4.80;;
769;SDS011;368;48.698;9.116;2022-08-25T00:24:18;4.33;;;4.03;;
769;SDS011;368;48.698;9.116;2022-08-25T00:26:47;5.10;;;4.27;;
769;SDS011;368;48.698;9.116;2022-08-25T00:29:17;5.17;;;4.77;;
769;SDS011;368;48.698;9.116;2022-08-25T00:31:44;5.20;;;4.73;;
769;SDS011;368;48.698;9.116;2022-08-25T00:34:12;7.70;;;4.37;;
769;SDS011;368;48.698;9.116;2022-08-25T00:36:41;7.70;;;4.90;;
769;SDS011;368;48.698;9.116;2022-08-25T00:39:09;5.30;;;4.90;;
769;SDS011;368;48.698;9.116;2022-08-25T00:41:36;5.20;;;4.70;;
769;SDS011;368;48.698;9.116;2022-08-25T00:44:06;5.83;;;5.30;;
769;SDS011;368;48.698;9.116;2022-08-25T00:46:37;5.57;;;5.07;;
769;SDS011;368;48.698;9.116;2022-08-25T00:49:09;5.30;;;4.90;;
769;SDS011;368;48.698;9.116;2022-08-25T00:51:39;4.80;;;4.17;;
769;SDS011;368;48.698;9.116;2022-08-25T00:54:10;6.33;;;5.50;;
769;SDS011;368;48.698;9.116;2022-08-25T00:56:40;6.90;;;5.37;;
769;SDS011;368;48.698;9.116;2022-08-25T00:59:08;5.60;;;5.10;;
769;SDS011;368;48.698;9.116;2022-08-25T01:01:37;4.83;;;4.43;;
769;SDS011;368;48.698;9.116;2022-08-25T01:04:03;5.03;;;4.53;;
769;SDS011;368;48.698;9.116;2022-08-25T01:06:31;5.30;;;4.90;;
769;SDS011;368;48.698;9.116;2022-08-25T01:09:00;4.77;;;4.30;;
769;SDS011;368;48.698;9.116;2022-08-25T01:11:29;7.30;;;5.47;;
769;SDS011;368;48.698;9.116;2022-08-25T01:13:56;5.80;;;5.20;;
769;SDS011;368;48.698;9.116;2022-08-25T01:16:27;5.37;;;4.87;;
769;SDS011;368;48.698;9.116;2022-08-25T01:18:56;8.03;;;5.73;;
769;SDS011;368;48.698;9.116;2022-08-25T01:21:26;6.50;;;5.70;;
769;SDS011;368;48.698;9.116;2022-08-25T01:23:54;6.90;;;6.20;;
769;SDS011;368;48.698;9.116;2022-08-25T01:26:24;6.20;;;5.67;;
769;SDS011;368;48.698;9.116;2022-08-25T01:28:52;5.93;;;5.43;;
769;SDS011;368;48.698;9.116;2022-08-25T01:31:38;4.90;;;4.50;;
769;SDS011;368;48.698;9.116;2022-08-25T01:34:07;8.10;;;4.33;;
769;SDS011;368;48.698;9.116;2022-08-25T01:36:38;4.40;;;4.10;;
769;SDS011;368;48.698;9.116;2022-08-25T01:39:05;4.60;;;4.20;;
769;SDS011;368;48.698;9.116;2022-08-25T01:41:35;4.10;;;3.80;;
769;SDS011;368;48.698;9.116;2022-08-25T01:44:10;4.47;;;4.07;;
769;SDS011;368;48.698;9.116;2022-08-25T01:46:37;5.37;;;4.87;;
769;SDS011;368;48.698;9.116;2022-08-25T01:49:03;5.17;;;4.80;;
769;SDS011;368;48.698;9.116;2022-08-25T01:51:32;6.00;;;4.77;;
769;SDS011;368;48.698;9.116;2022-08-25T01:54:04;5.93;;;4.83;;
769;SDS011;368;48.698;9.116;2022-08-25T01:56:31;5.03;;;4.60;;
769;SDS011;368;48.698;9.116;2022-08-25T01:58:58;5.20;;;4.70;;
769;SDS011;368;48.698;9.116;2022-08-25T02:01:24;5.90;;;5.40;;
769;SDS011;368;48.698;9.116;2022-08-25T02:03:52;5.37;;;4.90;;
769;SDS011;368;48.698;9.116;2022-08-25T02:06:20;4.40;;;4.10;;
769;SDS011;368;48.698;9.116;2022-08-25T02:08:50;5.50;;;5.00;;
769;SDS011;368;48.698;9.116;2022-08-25T02:11:19;4.73;;;4.33;;
769;SDS011;368;48.698;9.116;2022-08-25T02:13:47;5.30;;;4.80;;
769;SDS011;368;48.698;9.116;2022-08-25T02:16:16;5.27;;;4.87;;
769;SDS011;368;48.698;9.116;2022-08-25T02:18:45;5.90;;;5.40;;
769;SDS011;368;48.698;9.116;2022-08-25T02:21:12;5.10;;;4.70;;
769;SDS011;368;48.698;9.116;2022-08-25T02:23:39;5.97;;;5.40;;
769;SDS011;368;48.698;9.116;2022-08-25T02:26:06;5.10;;;4.70;;
769;SDS011;368;48.698;9.116;2022-08-25T02:28:35;5.90;;;4.50;;
769;SDS011;368;48.698;9.116;2022-08-25T02:31:02;5.80;;;5.20;;
769;SDS011;368;48.698;9.116;2022-08-25T02:33:30;5.87;;;5.37;;
769;SDS011;368;48.698;9.116;2022-08-25T02:35:57;6.00;;;5.40;;
769;SDS011;368;48.698;9.116;2022-08-25T02:38:25;5.60;;;5.07;;
769;SDS011;368;48.698;9.116;2022-08-25T02:40:52;5.60;;;5.10;;
769;SDS011;368;48.698;9.116;2022-08-25T02:43:19;5.07;;;4.67;;
769;SDS011;368;48.698;9.116;2022-08-25T02:45:47;5.23;;;4.80;;
769;SDS011;368;48.698;9.116;2022-08-25T02:48:14;6.10;;;5.50;;
769;SDS011;368;48.698;9.116;2022-08-25T02:50:45;5.33;;;4.93;;
769;SDS011;368;48.698;9.116;2022-08-25T02:53:12;5.63;;;5.13;;
769;SDS011;368;48.698;9.116;2022-08-25T02:55:39;6.07;;;5.57;;
769;SDS011;368;48.698;9.116;2022-08-25T02:58:05;5.93;;;5.43;;
769;SDS011;368;48.698;9.116;2022-08-25T03:00:34;5.87;;;5.37;;
769;SDS011;368;48.698;9.116;2022-08-25T03:03:02;6.27;;;5.67;;
769;SDS011;368;48.698;9.116;2022-08-25T03:05:29;5.97;;;5.40;;
769;SDS011;368;48.698;9.116;2022-08-25T03:07:56;6.23;;;5.73;;
769;SDS011;368;48.698;9.116;2022-08-25T03:10:24;6.20;;;5.70;;
769;SDS011;368;48.698;9.116;2022-08-25T03:12:51;5.87;;;5.37;;
769;SDS011;368;48.698;9.116;2022-08-25T03:15:18;6.27;;;5.53;;
769;SDS011;368;48.698;9.116;2022-08-25T03:17:45;5.57;;;5.07;;
769;SDS011;368;48.698;9.116;2022-08-25T03:20:14;6.27;;;5.77;;
769;SDS011;368;48.698;9.116;2022-08-25T03:22:41;5.87;;;5.37;;
769;SDS011;368;48.698;9.116;2022-08-25T03:25:08;5.57;;;5.07;;
769;SDS011;368;48.698;9.116;2022-08-25T03:27:53;5.63;;;5.23;;
769;SDS011;368;48.698;9.116;2022-08-25T03:30:20;5.70;;;5.17;;
769;SDS011;368;48.698;9.116;2022-08-25T03:32:47;5.83;;;5.33;;
769;SDS011;368;48.698;9.116;2022-08-25T03:35:15;6.20;;;5.70;;
769;SDS011;368;48.698;9.116;2022-08-25T03:37:42;6.07;;;5.57;;
769;SDS011;368;48.698;9.116;2022-08-25T03:40:10;6.47;;;5.87;;
769;SDS011;368;48.698;9.116;2022-08-25T03:42:41;6.40;;;5.80;;
769;SDS011;368;48.698;9.116;2022-08-25T03:45:09;7.33;;;6.60;;
769;SDS011;368;48.698;9.116;2022-08-25T03:47:38;10.50;;;7.00;;
769;SDS011;368;48.698;9.116;2022-08-25T03:50:07;6.67;;;5.97;;
769;SDS011;368;48.698;9.116;2022-08-25T03:52:36;6.43;;;5.37;;
769;SDS011;368;48.698;9.116;2022-08-25T03:55:05;7.70;;;7.00;;
769;SDS011;368;48.698;9.116;2022-08-25T03:57:33;7.47;;;6.73;;
769;SDS011;368;48.698;9.116;2022-08-25T04:00:00;8.03;;;7.23;;
769;SDS011;368;48.698;9.116;2022-08-25T04:02:28;8.10;;;7.40;;
769;SDS011;368;48.698;9.116;2022-08-25T04:04:57;8.20;;;7.40;;
769;SDS011;368;48.698;9.116;2022-08-25T04:07:25;7.37;;;6.47;;
769;SDS011;368;48.698;9.116;2022-08-25T04:09:53;7.20;;;6.40;;
769;SDS011;368;48.698;9.116;2022-08-25T04:12:21;6.83;;;6.10;;
769;SDS011;368;48.698;9.116;2022-08-25T04:14:48;7.90;;;7.20;;
769;SDS011;368;48.698;9.116;2022-08-25T04:17:15;7.57;;;6.87;;
769;SDS011;368;48.698;9.116;2022-08-25T04:19:42;8.30;;;7.50;;
769;SDS011;368;48.698;9.116;2022-08-25T04:22:09;5.20;;;4.70;;
769;SDS011;368;48.698;9.116;2022-08-25T04:24:36;7.80;;;5.40;;
769;SDS011;368;48.698;9.116;2022-08-25T04:27:04;7.33;;;5.47;;
769;SDS011;368;48.698;9.116;2022-08-25T04:29:31;6.20;;;5.60;;
769;SDS011;368;48.698;9.116;2022-08-25T04:31:58;5.60;;;5.10;;
769;SDS011;368;48.698;9.116;2022-08-25T04:34:25;6.57;;;6.00;;
769;SDS011;368;48.698;9.116;2022-08-25T04:36:52;6.00;;;5.43;;
769;SDS011;368;48.698;9.116;2022-08-25T04:39:19;6.70;;;6.10;;
769;SDS011;368;48.698;9.116;2022-08-25T04:41:46;5.50;;;4.93;;
769;SDS011;368;48.698;9.116;2022-08-25T04:44:16;6.00;;;5.40;;
769;SDS011;368;48.698;9.116;2022-08-25T04:46:43;5.50;;;5.00;;
769;SDS011;368;48.698;9.116;2022-08-25T04:49:10;6.70;;;6.10;;
769;SDS011;368;48.698;9.116;2022-08-25T04:51:37;6.13;;;5.50;;
769;SDS011;368;48.698;9.116;2022-08-25T04:54:06;6.60;;;5.90;;
769;SDS011;368;48.698;9.116;2022-08-25T04:56:35;7.07;;;6.37;;
769;SDS011;368;48.698;9.116;2022-08-25T04:59:02;6.53;;;6.00;;
769;SDS011;368;48.698;9.116;2022-08-25T05:01:33;13.93;;;6.20;;
769;SDS011;368;48.698;9.116;2022-08-25T05:04:00;7.10;;;6.40;;
769;SDS011;368;48.698;9.116;2022-08-25T05:06:29;6.23;;;5.63;;
769;SDS011;368;48.698;9.116;2022-08-25T05:08:56;6.43;;;5.87;;
769;SDS011;368;48.698;9.116;2022-08-25T05:11:25;7.63;;;6.90;;
769;SDS011;368;48.698;9.116;2022-08-25T05:13:53;7.23;;;6.53;;
769;SDS011;368;48.698;9.116;2022-08-25T05:16:21;8.10;;;7.30;;
769;SDS011;368;48.698;9.116;2022-08-25T05:18:51;9.40;;;8.50;;
769;SDS011;368;48.698;9.116;2022-08-25T05:21:19;6.80;;;5.73;;
769;SDS011;368;48.698;9.116;2022-08-25T05:23:48;5.77;;;5.27;;
769;SDS011;368;48.698;9.116;2022-08-25T05:26:17;5.53;;;5.00;;
769;SDS011;368;48.698;9.116;2022-08-25T05:28:46;5.77;;;4.97;;
769;SDS011;368;48.698;9.116;2022-08-25T05:31:14;6.03;;;5.43;;
769;SDS011;368;48.698;9.116;2022-08-25T05:33:42;6.10;;;5.50;;
769;SDS011;368;48.698;9.116;2022-08-25T05:36:11;7.27;;;6.07;;
769;SDS011;368;48.698;9.116;2022-08-25T05:38:39;8.20;;;7.40;;
769;SDS011;368;48.698;9.116;2022-08-25T05:41:07;12.13;;;8.23;;
769;SDS011;368;48.698;9.116;2022-08-25T05:43:37;9.67;;;8.50;;
769;SDS011;368;48.698;9.116;2022-08-25T05:46:06;8.70;;;7.90;;
769;SDS011;368;48.698;9.116;2022-08-25T05:48:33;8.50;;;7.60;;
769;SDS011;368;48.698;9.116;2022-08-25T05:51:01;6.37;;;5.77;;
769;SDS011;368;48.698;9.116;2022-08-25T05:53:31;6.60;;;5.70;;
769;SDS011;368;48.698;9.116;2022-08-25T05:55:58;7.20;;;6.20;;
769;SDS011;368;48.698;9.116;2022-08-25T05:58:26;7.70;;;6.37;;
769;SDS011;368;48.698;9.116;2022-08-25T06:00:54;9.30;;;7.43;;
769;SDS011;368;48.698;9.116;2022-08-25T06:03:21;8.93;;;8.03;;
769;SDS011;368;48.698;9.116;2022-08-25T06:05:47;9.67;;;7.27;;
769;SDS011;368;48.698;9.116;2022-08-25T06:08:14;9.37;;;7.37;;
769;SDS011;368;48.698;9.116;2022-08-25T06:10:42;8.37;;;7.57;;
769;SDS011;368;48.698;9.116;2022-08-25T06:13:09;8.17;;;7.47;;
769;SDS011;368;48.698;9.116;2022-08-25T06:15:36;8.27;;;7.47;;
769;SDS011;368;48.698;9.116;2022-08-25T06:18:03;7.30;;;6.60;;
769;SDS011;368;48.698;9.116;2022-08-25T06:20:31;8.10;;;7.30;;
769;SDS011;368;48.698;9.116;2022-08-25T06:22:58;14.87;;;7.60;;
769;SDS011;368;48.698;9.116;2022-08-25T06:25:25;9.10;;;7.97;;
769;SDS011;368;48.698;9.116;2022-08-25T06:27:58;8.93;;;8.17;;
769;SDS011;368;48.698;9.116;2022-08-25T06:30:24;8.00;;;7.20;;
769;SDS011;368;48.698;9.116;2022-08-25T06:32:52;10.53;;;8.20;;
769;SDS011;368;48.698;9.116;2022-08-25T06:35:19;7.50;;;6.80;;
769;SDS011;368;48.698;9.116;2022-08-25T06:37:46;7.27;;;6.57;;
769;SDS011;368;48.698;9.116;2022-08-25T06:40:13;9.10;;;8.20;;
769;SDS011;368;48.698;9.116;2022-08-25T06:42:41;11.10;;;8.40;;
769;SDS011;368;48.698;9.116;2022-08-25T06:45:09;9.90;;;9.00;;
769;SDS011;368;48.698;9.116;2022-08-25T06:47:36;9.23;;;8.43;;
769;SDS011;368;48.698;9.116;2022-08-25T06:50:04;9.60;;;8.10;;
769;SDS011;368;48.698;9.116;2022-08-25T06:52:31;9.33;;;8.43;;
769;SDS011;368;48.698;9.116;2022-08-25T06:54:59;8.50;;;7.53;;
769;SDS011;368;48.698;9.116;2022-08-25T06:57:26;7.63;;;6.67;;
769;SDS011;368;48.698;9.116;2022-08-25T06:59:53;8.70;;;7.73;;
769;SDS011;368;48.698;9.116;2022-08-25T07:02:21;7.60;;;6.77;;
769;SDS011;368;48.698;9.116;2022-08-25T07:04:48;8.37;;;7.50;;
769;SDS011;368;48.698;9.116;2022-08-25T07:07:17;10.80;;;7.70;;
769;SDS011;368;48.698;9.116;2022-08-25T07:09:45;9.50;;;8.60;;
769;SDS011;368;48.698;9.116;2022-08-25T07:12:12;12.27;;;7.67;;
769;SDS011;368;48.698;9.116;2022-08-25T07:14:39;11.20;;;8.00;;
769;SDS011;368;48.698;9.116;2022-08-25T07:17:05;9.27;;;8.37;;
769;SDS011;368;48.698;9.116;2022-08-25T07:19:33;7.90;;;7.30;;
769;SDS011;368;48.698;9.116;2022-08-25T07:22:00;8.13;;;7.23;;
769;SDS011;368;48.698;9.116;2022-08-25T07:24:27;8.83;;;7.93;;
769;SDS011;368;48.698;9.116;2022-08-25T07:26:54;9.13;;;8.23;;
769;SDS011;368;48.698;9.116;2022-08-25T07:29:22;9.07;;;8.10;;
769;SDS011;368;48.698;9.116;2022-08-25T07:31:51;8.53;;;7.20;;
769;SDS011;368;48.698;9.116;2022-08-25T07:34:18;10.23;;;7.87;;
769;SDS011;368;48.698;9.116;2022-08-25T07:37:04;7.93;;;7.13;;
769;SDS011;368;48.698;9.116;2022-08-25T07:39:31;9.83;;;8.10;;
769;SDS011;368;48.698;9.116;2022-08-25T07:41:59;12.20;;;8.30;;
769;SDS011;368;48.698;9.116;2022-08-25T07:44:26;9.93;;;8.57;;
769;SDS011;368;48.698;9.116;2022-08-25T07:46:54;10.17;;;7.70;;
769;SDS011;368;48.698;9.116;2022-08-25T07:49:21;9.40;;;7.60;;
769;SDS011;368;48.698;9.116;2022-08-25T07:51:49;7.93;;;7.23;;
769;SDS011;368;48.698;9.116;2022-08-25T07:54:19;9.10;;;8.00;;
769;SDS011;368;48.698;9.116;2022-08-25T07:56:47;9.13;;;7.23;;
769;SDS011;368;48.698;9.116;2022-08-25T07:59:13;8.07;;;7.27;;
769;SDS011;368;48.698;9.116;2022-08-25T08:01:40;7.87;;;7.17;;
769;SDS011;368;48.698;9.116;2022-08-25T08:04:07;8.43;;;7.63;;
769;SDS011;368;48.698;9.116;2022-08-25T08:06:34;7.40;;;6.73;;
769;SDS011;368;48.698;9.116;2022-08-25T08:09:01;10.60;;;6.80;;
769;SDS011;368;48.698;9.116;2022-08-25T08:11:30;7.40;;;6.67;;
769;SDS011;368;48.698;9.116;2022-08-25T08:14:00;7.00;;;6.40;;
769;SDS011;368;48.698;9.116;2022-08-25T08:16:28;6.90;;;6.20;;
769;SDS011;368;48.698;9.116;2022-08-25T08:18:56;6.63;;;5.93;;
769;SDS011;368;48.698;9.116;2022-08-25T08:21:24;6.63;;;5.80;;
769;SDS011;368;48.698;9.116;2022-08-25T08:23:53;6.00;;;5.50;;
769;SDS011;368;48.698;9.116;2022-08-25T08:26:21;7.47;;;6.87;;
769;SDS011;368;48.698;9.116;2022-08-25T08:28:49;6.57;;;5.97;;
769;SDS011;368;48.698;9.116;2022-08-25T08:31:16;6.90;;;6.20;;
769;SDS011;368;48.698;9.116;2022-08-25T08:33:44;7.33;;;6.63;;
769;SDS011;368;48.698;9.116;2022-08-25T08:36:11;7.27;;;6.57;;
769;SDS011;368;48.698;9.116;2022-08-25T08:38:39;7.23;;;6.63;;
769;SDS011;368;48.698;9.116;2022-08-25T08:41:12;7.17;;;6.50;;
769;SDS011;368;48.698;9.116;2022-08-25T08:44:16;7.10;;;6.40;;
769;SDS011;368;48.698;9.116;2022-08-25T08:46:52;6.90;;;6.30;;
769;SDS011;368;48.698;9.116;2022-08-25T08:49:25;10.43;;;6.30;;
769;SDS011;368;48.698;9.116;2022-08-25T08:52:00;6.87;;;6.27;;
769;SDS011;368;48.698;9.116;2022-08-25T08:54:29;5.60;;;5.10;;
769;SDS011;368;48.698;9.116;2022-08-25T08:57:02;6.63;;;5.83;;
769;SDS011;368;48.698;9.116;2022-08-25T08:59:37;5.87;;;5.37;;
769;SDS011;368;48.698;9.116;2022-08-25T09:02:11;7.10;;;6.43;;
769;SDS011;368;48.698;9.116;2022-08-25T09:04:40;8.90;;;6.10;;
769;SDS011;368;48.698;9.116;2022-08-25T09:07:12;7.40;;;6.70;;
769;SDS011;368;48.698;9.116;2022-08-25T09:09:42;6.40;;;5.80;;
769;SDS011;368;48.698;9.116;2022-08-25T09:12:11;5.50;;;5.10;;
769;SDS011;368;48.698;9.116;2022-08-25T09:14:48;5.60;;;5.20;;
769;SDS011;368;48.698;9.116;2022-08-25T09:17:25;11.83;;;6.03;;
769;SDS011;368;48.698;9.116;2022-08-25T09:20:19;7.73;;;6.10;;
769;SDS011;368;48.698;9.116;2022-08-25T09:23:06;6.83;;;6.20;;
769;SDS011;368;48.698;9.116;2022-08-25T09:25:43;6.23;;;5.40;;
769;SDS011;368;48.698;9.116;2022-08-25T09:28:18;6.30;;;5.80;;
769;SDS011;368;48.698;9.116;2022-08-25T09:30:49;6.00;;;5.40;;
769;SDS011;368;48.698;9.116;2022-08-25T09:33:22;6.47;;;5.97;;
769;SDS011;368;48.698;9.116;2022-08-25T09:35:51;5.77;;;5.37;;
769;SDS011;368;48.698;9.116;2022-08-25T09:38:19;6.10;;;5.50;;
769;SDS011;368;48.698;9.116;2022-08-25T09:40:47;6.03;;;5.53;;
769;SDS011;368;48.698;9.116;2022-08-25T09:43:21;6.57;;;5.27;;
769;SDS011;368;48.698;9.116;2022-08-25T09:45:56;5.03;;;4.63;;
769;SDS011;368;48.698;9.116;2022-08-25T09:48:29;6.40;;;5.90;;
769;SDS011;368;48.698;9.116;2022-08-25T09:51:08;6.10;;;5.60;;
769;SDS011;368;48.698;9.116;2022-08-25T09:53:41;12.73;;;5.37;;
769;SDS011;368;48.698;9.116;2022-08-25T09:56:13;8.20;;;5.97;;
769;SDS011;368;48.698;9.116;2022-08-25T09:58:42;6.90;;;5.80;;
769;SDS011;368;48.698;9.116;2022-08-25T10:01:14;6.30;;;5.80;;
769;SDS011;368;48.698;9.116;2022-08-25T10:06:29;5.60;;;5.20;;
769;SDS011;368;48.698;9.116;2022-08-25T10:09:02;5.53;;;5.13;;
769;SDS011;368;48.698;9.116;2022-08-25T10:11:32;5.37;;;4.93;;
769;SDS011;368;48.698;9.116;2022-08-25T10:14:18;5.40;;;4.70;;
769;SDS011;368;48.698;9.116;2022-08-25T10:16:53;4.37;;;3.97;;
769;SDS011;368;48.698;9.116;2022-08-25T10:19:38;5.03;;;4.63;;
769;SDS011;368;48.698;9.116;2022-08-25T10:22:07;4.77;;;4.37;;
769;SDS011;368;48.698;9.116;2022-08-25T10:24:35;6.07;;;5.20;;
769;SDS011;368;48.698;9.116;2022-08-25T10:27:08;5.20;;;4.80;;
769;SDS011;368;48.698;9.116;2022-08-25T10:32:33;5.03;;;4.63;;
769;SDS011;368;48.698;9.116;2022-08-25T10:35:08;5.70;;;4.90;;
769;SDS011;368;48.698;9.116;2022-08-25T10:37:40;5.00;;;4.70;;
769;SDS011;368;48.698;9.116;2022-08-25T10:40:16;7.57;;;4.63;;
769;SDS011;368;48.698;9.116;2022-08-25T10:42:52;4.57;;;4.27;;
769;SDS011;368;48.698;9.116;2022-08-25T10:45:28;5.60;;;5.20;;
769;SDS011;368;48.698;9.116;2022-08-25T10:51:28;4.27;;;3.97;;
769;SDS011;368;48.698;9.116;2022-08-25T10:54:04;4.63;;;4.33;;
769;SDS011;368;48.698;9.116;2022-08-25T10:56:36;5.50;;;5.00;;
769;SDS011;368;48.698;9.116;2022-08-25T10:59:09;4.40;;;4.10;;
769;SDS011;368;48.698;9.116;2022-08-25T11:01:52;4.73;;;4.33;;
769;SDS011;368;48.698;9.116;2022-08-25T11:04:46;4.53;;;4.13;;
769;SDS011;368;48.698;9.116;2022-08-25T11:07:19;4.67;;;4.30;;
769;SDS011;368;48.698;9.116;2022-08-25T11:09:51;4.77;;;4.47;;
769;SDS011;368;48.698;9.116;2022-08-25T11:12:24;4.67;;;4.27;;
769;SDS011;368;48.698;9.116;2022-08-25T11:14:56;4.90;;;4.60;;
769;SDS011;368;48.698;9.116;2022-08-25T11:17:25;5.30;;;4.90;;
769;SDS011;368;48.698;9.116;2022-08-25T11:19:59;4.57;;;4.27;;
769;SDS011;368;48.698;9.116;2022-08-25T11:22:34;4.93;;;4.57;;
769;SDS011;368;48.698;9.116;2022-08-25T11:25:10;4.20;;;3.90;;
769;SDS011;368;48.698;9.116;2022-08-25T11:27:42;4.50;;;4.10;;
769;SDS011;368;48.698;9.116;2022-08-25T11:30:14;4.63;;;4.23;;
769;SDS011;368;48.698;9.116;2022-08-25T11:32:43;4.93;;;4.37;;
769;SDS011;368;48.698;9.116;2022-08-25T11:35:15;4.37;;;4.00;;
769;SDS011;368;48.698;9.116;2022-08-25T11:37:44;4.10;;;3.90;;
769;SDS011;368;48.698;9.116;2022-08-25T11:43:32;4.50;;;4.10;;
769;SDS011;368;48.698;9.116;2022-08-25T11:46:30;5.73;;;4.60;;
769;SDS011;368;48.698;9.116;2022-08-25T11:49:14;4.33;;;3.97;;
769;SDS011;368;48.698;9.116;2022-08-25T11:52:07;5.10;;;4.70;;
769;SDS011;368;48.698;9.116;2022-08-25T11:55:11;4.40;;;4.10;;
769;SDS011;368;48.698;9.116;2022-08-25T11:57:40;4.23;;;3.93;;
769;SDS011;368;48.698;9.116;2022-08-25T12:00:09;4.50;;;4.20;;
769;SDS011;368;48.698;9.116;2022-08-25T12:02:40;3.60;;;3.40;;
769;SDS011;368;48.698;9.116;2022-08-25T12:05:09;5.10;;;3.90;;
769;SDS011;368;48.698;9.116;2022-08-25T12:08:00;4.47;;;3.87;;
769;SDS011;368;48.698;9.116;2022-08-25T12:10:57;3.83;;;3.53;;
769;SDS011;368;48.698;9.116;2022-08-25T12:13:28;4.10;;;3.80;;
769;SDS011;368;48.698;9.116;2022-08-25T12:25:31;4.37;;;4.07;;
769;SDS011;368;48.698;9.116;2022-08-25T12:28:25;3.70;;;3.37;;
769;SDS011;368;48.698;9.116;2022-08-25T12:31:03;3.70;;;3.40;;
769;SDS011;368;48.698;9.116;2022-08-25T12:33:42;4.10;;;3.80;;
769;SDS011;368;48.698;9.116;2022-08-25T12:36:26;5.00;;;4.50;;
769;SDS011;368;48.698;9.116;2022-08-25T12:39:06;4.13;;;3.83;;
769;SDS011;368;48.698;9.116;2022-08-25T12:41:51;5.20;;;3.80;;
769;SDS011;368;48.698;9.116;2022-08-25T12:44:35;3.93;;;3.67;;
769;SDS011;368;48.698;9.116;2022-08-25T12:47:05;4.37;;;3.83;;
769;SDS011;368;48.698;9.116;2022-08-25T12:49:38;4.40;;;4.00;;
769;SDS011;368;48.698;9.116;2022-08-25T12:52:06;4.70;;;3.50;;
769;SDS011;368;48.698;9.116;2022-08-25T12:54:41;5.63;;;3.50;;
769;SDS011;368;48.698;9.116;2022-08-25T12:57:27;5.17;;;3.63;;
769;SDS011;368;48.698;9.116;2022-08-25T13:00:05;3.70;;;3.40;;
769;SDS011;368;48.698;9.116;2022-08-25T13:06:07;3.97;;;3.67;;
769;SDS011;368;48.698;9.116;2022-08-25T13:12:06;3.70;;;3.40;;
769;SDS011;368;48.698;9.116;2022-08-25T13:14:40;5.00;;;3.87;;
769;SDS011;368;48.698;9.116;2022-08-25T13:17:08;7.20;;;3.60;;
769;SDS011;368;48.698;9.116;2022-08-25T13:19:36;3.57;;;3.37;;
769;SDS011;368;48.698;9.116;2022-08-25T13:22:08;3.50;;;3.20;;
769;SDS011;368;48.698;9.116;2022-08-25T13:24:38;4.57;;;3.67;;
769;SDS011;368;48.698;9.116;2022-08-25T13:27:08;4.03;;;3.67;;
769;SDS011;368;48.698;9.116;2022-08-25T13:29:49;3.83;;;3.53;;
769;SDS011;368;48.698;9.116;2022-08-25T13:32:24;3.40;;;3.10;;
769;SDS011;368;48.698;9.116;2022-08-25T13:34:54;3.10;;;2.90;;
769;SDS011;368;48.698;9.116;2022-08-25T13:37:35;3.57;;;3.27;;
769;SDS011;368;48.698;9.116;2022-08-25T13:40:08;2.97;;;2.63;;
769;SDS011;368;48.698;9.116;2022-08-25T13:42:37;3.43;;;3.13;;
769;SDS011;368;48.698;9.116;2022-08-25T13:45:06;3.17;;;2.57;;
769;SDS011;368;48.698;9.116;2022-08-25T13:47:36;3.23;;;2.90;;
769;SDS011;368;48.698;9.116;2022-08-25T13:50:18;3.83;;;2.70;;
769;SDS011;368;48.698;9.116;2022-08-25T13:52:48;3.20;;;2.60;;
769;SDS011;368;48.698;9.116;2022-08-25T13:55:19;3.90;;;3.60;;
769;SDS011;368;48.698;9.116;2022-08-25T13:57:47;5.97;;;3.77;;
769;SDS011;368;48.698;9.116;2022-08-25T14:00:24;3.40;;;3.10;;
769;SDS011;368;48.698;9.116;2022-08-25T14:02:53;3.80;;;3.50;;
769;SDS011;368;48.698;9.116;2022-08-25T14:05:31;3.10;;;2.87;;
769;SDS011;368;48.698;9.116;2022-08-25T14:08:00;3.53;;;3.23;;
769;SDS011;368;48.698;9.116;2022-08-25T14:10:36;3.73;;;3.00;;
769;SDS011;368;48.698;9.116;2022-08-25T14:13:12;3.23;;;3.03;;
769;SDS011;368;48.698;9.116;2022-08-25T14:15:42;2.83;;;2.53;;
769;SDS011;368;48.698;9.116;2022-08-25T14:18:12;2.80;;;2.60;;
769;SDS011;368;48.698;9.116;2022-08-25T14:20:45;3.47;;;2.83;;
769;SDS011;368;48.698;9.116;2022-08-25T14:23:16;3.13;;;2.83;;
769;SDS011;368;48.698;9.116;2022-08-25T14:25:48;4.20;;;2.63;;
769;SDS011;368;48.698;9.116;2022-08-25T14:28:17;3.13;;;2.83;;
769;SDS011;368;48.698;9.116;2022-08-25T14:30:48;3.77;;;2.93;;
769;SDS011;368;48.698;9.116;2022-08-25T14:33:18;2.77;;;2.57;;
769;SDS011;368;48.698;9.116;2022-08-25T14:35:48;3.23;;;2.93;;
769;SDS011;368;48.698;9.116;2022-08-25T14:38:17;3.00;;;2.80;;
769;SDS011;368;48.698;9.116;2022-08-25T14:40:45;3.23;;;2.93;;
769;SDS011;368;48.698;9.116;2022-08-25T14:43:12;3.37;;;3.00;;
769;SDS011;368;48.698;9.116;2022-08-25T14:45:40;2.90;;;2.50;;
769;SDS011;368;48.698;9.116;2022-08-25T14:48:11;2.90;;;2.60;;
769;SDS011;368;48.698;9.116;2022-08-25T14:50:42;3.03;;;2.80;;
769;SDS011;368;48.698;9.116;2022-08-25T14:53:10;2.90;;;2.70;;
769;SDS011;368;48.698;9.116;2022-08-25T14:55:37;3.00;;;2.80;;
769;SDS011;368;48.698;9.116;2022-08-25T14:58:04;2.73;;;2.53;;
769;SDS011;368;48.698;9.116;2022-08-25T15:00:39;6.00;;;3.20;;
769;SDS011;368;48.698;9.116;2022-08-25T15:03:12;4.00;;;3.27;;
769;SDS011;368;48.698;9.116;2022-08-25T15:05:41;4.87;;;3.40;;
769;SDS011;368;48.698;9.116;2022-08-25T15:08:08;3.63;;;3.40;;
769;SDS011;368;48.698;9.116;2022-08-25T15:10:53;3.30;;;2.90;;
769;SDS011;368;48.698;9.116;2022-08-25T15:13:20;3.33;;;3.03;;
769;SDS011;368;48.698;9.116;2022-08-25T15:15:46;3.70;;;3.43;;
769;SDS011;368;48.698;9.116;2022-08-25T15:18:15;3.87;;;3.57;;
769;SDS011;368;48.698;9.116;2022-08-25T15:20:45;4.23;;;3.60;;
769;SDS011;368;48.698;9.116;2022-08-25T15:23:12;6.30;;;3.30;;
769;SDS011;368;48.698;9.116;2022-08-25T15:25:39;3.97;;;3.67;;
769;SDS011;368;48.698;9.116;2022-08-25T15:28:07;4.13;;;3.83;;
769;SDS011;368;48.698;9.116;2022-08-25T15:30:34;3.80;;;3.50;;
769;SDS011;368;48.698;9.116;2022-08-25T15:33:01;3.97;;;3.57;;
769;SDS011;368;48.698;9.116;2022-08-25T15:35:30;3.50;;;3.20;;
769;SDS011;368;48.698;9.116;2022-08-25T15:37:57;3.80;;;3.40;;
769;SDS011;368;48.698;9.116;2022-08-25T15:40:23;3.77;;;3.47;;
769;SDS011;368;48.698;9.116;2022-08-25T15:42:50;3.47;;;3.17;;
769;SDS011;368;48.698;9.116;2022-08-25T15:45:17;3.43;;;3.23;;
769;SDS011;368;48.698;9.116;2022-08-25T15:47:45;3.37;;;3.10;;
769;SDS011;368;48.698;9.116;2022-08-25T15:50:14;2.97;;;2.77;;
769;SDS011;368;48.698;9.116;2022-08-25T15:52:45;3.80;;;2.87;;
769;SDS011;368;48.698;9.116;2022-08-25T15:55:12;3.20;;;2.90;;
769;SDS011;368;48.698;9.116;2022-08-25T15:57:40;3.03;;;2.83;;
769;SDS011;368;48.698;9.116;2022-08-25T16:00:08;3.57;;;3.30;;
769;SDS011;368;48.698;9.116;2022-08-25T16:02:36;3.23;;;2.93;;
769;SDS011;368;48.698;9.116;2022-08-25T16:05:03;4.17;;;3.77;;
769;SDS011;368;48.698;9.116;2022-08-25T16:07:30;4.40;;;4.07;;
769;SDS011;368;48.698;9.116;2022-08-25T16:09:59;4.37;;;3.93;;
769;SDS011;368;48.698;9.116;2022-08-25T16:12:26;4.20;;;3.80;;
769;SDS011;368;48.698;9.116;2022-08-25T16:14:52;3.77;;;3.47;;
769;SDS011;368;48.698;9.116;2022-08-25T16:17:19;3.97;;;3.57;;
769;SDS011;368;48.698;9.116;2022-08-25T16:19:46;4.37;;;3.97;;
769;SDS011;368;48.698;9.116;2022-08-25T16:22:13;3.87;;;3.40;;
769;SDS011;368;48.698;9.116;2022-08-25T16:24:41;4.20;;;3.90;;
769;SDS011;368;48.698;9.116;2022-08-25T16:27:11;3.93;;;3.63;;
769;SDS011;368;48.698;9.116;2022-08-25T16:29:38;3.50;;;3.30;;
769;SDS011;368;48.698;9.116;2022-08-25T16:32:07;3.40;;;3.10;;
769;SDS011;368;48.698;9.116;2022-08-25T16:34:35;4.27;;;3.97;;